Time;durP1;ratioP1;P1;durP2;ratioP2;P2;SDS_P1;SDS_P2;PMS_P1;PMS_P2;Temp;Humidity;BMP_temperature;BMP_pressure;BME280_temperature;BME280_humidity;BME280_pressure;Samples;Min_cycle;Max_cycle;Signal;HPM_P1;HPM_P2
2021/12/28 00:01:11;;;;;;;85.18;47.45;;;;;;;;;;5022470;28;20049;-69
2021/12/28 00:03:40;;;;;;;84.68;46.88;;;;;;;;;;5011640;28;20041;-70
2021/12/28 00:06:06;;;;;;;78.22;44.88;;;;;;;;;;5011643;28;20042;-70
2021/12/28 00:08:32;;;;;;;85.97;48.13;;;;;;;;;;5023614;28;20445;-69
2021/12/28 00:10:59;;;;;;;88.60;48.95;;;;;;;;;;5034542;28;20075;-67
2021/12/28 00:13:26;;;;;;;89.40;48.03;;;;;;;;;;5035734;28;20076;-68
2021/12/28 00:18:22;;;;;;;85.90;44.35;;;;;;;;;;5035530;28;20049;-70
2021/12/28 00:20:52;;;;;;;74.13;42.90;;;;;;;;;;5034774;28;20507;-69
2021/12/28 00:23:20;;;;;;;75.50;41.67;;;;;;;;;;5034635;28;20475;-67
2021/12/28 00:25:48;;;;;;;82.82;42.65;;;;;;;;;;5021228;28;20030;-68
2021/12/28 00:28:14;;;;;;;70.53;39.55;;;;;;;;;;5013499;28;20042;-68
2021/12/28 00:30:40;;;;;;;73.05;40.60;;;;;;;;;;5013610;28;20037;-67
2021/12/28 00:33:07;;;;;;;70.72;38.55;;;;;;;;;;5021566;28;20060;-67
2021/12/28 00:35:35;;;;;;;63.17;37.03;;;;;;;;;;5033400;28;20017;-68
2021/12/28 00:38:05;;;;;;;66.63;38.30;;;;;;;;;;5034079;28;20152;-67
2021/12/28 00:40:32;;;;;;;99.90;44.53;;;;;;;;;;5034718;28;20040;-67
2021/12/28 00:42:58;;;;;;;86.63;40.00;;;;;;;;;;5034464;28;20014;-69
2021/12/28 00:45:24;;;;;;;83.03;40.65;;;;;;;;;;5034404;28;20041;-68
2021/12/28 00:47:50;;;;;;;90.82;43.85;;;;;;;;;;5034510;28;20037;-67
2021/12/28 00:50:18;;;;;;;74.57;38.33;;;;;;;;;;5034195;28;20044;-66
2021/12/28 00:52:45;;;;;;;67.38;37.58;;;;;;;;;;5035140;28;20041;-68
2021/12/28 00:55:13;;;;;;;63.13;36.63;;;;;;;;;;5035139;28;20122;-68
2021/12/28 00:57:39;;;;;;;61.15;35.60;;;;;;;;;;5033933;28;20381;-67
2021/12/28 01:00:09;;;;;;;67.15;37.05;;;;;;;;;;5034309;28;20130;-67
2021/12/28 01:02:35;;;;;;;71.45;38.55;;;;;;;;;;5023464;28;20154;-68
2021/12/28 01:05:01;;;;;;;73.10;39.38;;;;;;;;;;5014047;28;20120;-68
2021/12/28 01:07:26;;;;;;;75.38;38.90;;;;;;;;;;5014026;28;20021;-68
2021/12/28 01:09:52;;;;;;;74.35;38.55;;;;;;;;;;5013996;28;20088;-68
2021/12/28 01:12:19;;;;;;;70.95;39.53;;;;;;;;;;5013884;28;20033;-68
2021/12/28 01:14:45;;;;;;;71.20;40.05;;;;;;;;;;5013706;28;20481;-67
2021/12/28 01:17:11;;;;;;;65.25;37.28;;;;;;;;;;5013696;28;20021;-68
2021/12/28 01:19:37;;;;;;;66.50;38.55;;;;;;;;;;5013597;28;20080;-67
2021/12/28 01:22:03;;;;;;;72.68;39.88;;;;;;;;;;5012406;28;20053;-69
2021/12/28 01:24:30;;;;;;;74.22;40.60;;;;;;;;;;5013776;28;20030;-67
2021/12/28 01:26:57;;;;;;;69.32;40.25;;;;;;;;;;5013689;28;20026;-67
2021/12/28 01:29:23;;;;;;;65.80;39.38;;;;;;;;;;5008190;28;20046;-68
2021/12/28 01:31:49;;;;;;;71.63;36.95;;;;;;;;;;5013907;28;20040;-68
2021/12/28 01:34:15;;;;;;;74.28;39.35;;;;;;;;;;5013673;28;20080;-68
2021/12/28 01:36:41;;;;;;;72.43;39.30;;;;;;;;;;5013587;28;20076;-68
2021/12/28 01:39:08;;;;;;;62.55;34.70;;;;;;;;;;5013629;28;20040;-68
2021/12/28 01:41:35;;;;;;;67.05;38.03;;;;;;;;;;5013395;28;20061;-68
2021/12/28 01:44:05;;;;;;;63.08;36.60;;;;;;;;;;5012258;28;20052;-67
2021/12/28 01:46:32;;;;;;;79.70;39.42;;;;;;;;;;5012320;28;20048;-67
2021/12/28 01:48:57;;;;;;;68.70;36.83;;;;;;;;;;5012221;28;20026;-68
2021/12/28 01:51:24;;;;;;;66.40;38.83;;;;;;;;;;5013380;28;20157;-67
2021/12/28 01:53:55;;;;;;;66.25;37.28;;;;;;;;;;5013236;28;20069;-67
2021/12/28 01:56:30;;;;;;;67.80;38.38;;;;;;;;;;5024269;28;20055;-68
2021/12/28 01:58:57;;;;;;;74.60;39.10;;;;;;;;;;5030311;28;20372;-67
2021/12/28 02:01:23;;;;;;;71.90;39.63;;;;;;;;;;5013310;28;20357;-67
2021/12/28 02:03:50;;;;;;;66.90;37.20;;;;;;;;;;5018697;28;20061;-67
2021/12/28 02:06:16;;;;;;;67.30;38.33;;;;;;;;;;5032813;28;20029;-67
2021/12/28 02:08:42;;;;;;;72.45;37.03;;;;;;;;;;5032909;28;20033;-67
2021/12/28 02:11:10;;;;;;;66.63;35.53;;;;;;;;;;5033112;28;20036;-67
2021/12/28 02:13:36;;;;;;;56.47;32.72;;;;;;;;;;5030451;28;20029;-67
2021/12/28 02:16:02;;;;;;;50.58;30.17;;;;;;;;;;5012867;28;20365;-68
2021/12/28 02:18:31;;;;;;;47.60;29.92;;;;;;;;;;5013007;28;20052;-68
2021/12/28 02:20:58;;;;;;;49.15;30.42;;;;;;;;;;5029846;28;20026;-70
2021/12/28 02:23:24;;;;;;;45.88;28.42;;;;;;;;;;5032556;28;20048;-66
2021/12/28 02:25:51;;;;;;;45.63;28.77;;;;;;;;;;5024585;28;20053;-66
2021/12/28 02:28:18;;;;;;;84.30;38.60;;;;;;;;;;5012423;28;20054;-68
2021/12/28 02:30:50;;;;;;;81.60;42.03;;;;;;;;;;5012620;28;20052;-68
2021/12/28 02:33:17;;;;;;;73.03;41.90;;;;;;;;;;5012352;28;20480;-67
2021/12/28 02:35:43;;;;;;;72.50;41.50;;;;;;;;;;5012560;28;20018;-67
2021/12/28 02:38:11;;;;;;;74.22;40.33;;;;;;;;;;5012735;28;20037;-70
2021/12/28 02:40:38;;;;;;;75.70;40.22;;;;;;;;;;5012500;28;20018;-69
2021/12/28 02:43:06;;;;;;;63.45;36.88;;;;;;;;;;5012199;28;20116;-68
2021/12/28 02:45:40;;;;;;;59.20;34.10;;;;;;;;;;5012154;28;20034;-68
2021/12/28 02:48:07;;;;;;;55.67;32.03;;;;;;;;;;5012388;28;20037;-67
2021/12/28 02:50:48;;;;;;;52.78;31.35;;;;;;;;;;5012208;28;20022;-68
2021/12/28 02:53:15;;;;;;;59.95;33.22;;;;;;;;;;5010628;28;20037;-68
2021/12/28 02:55:41;;;;;;;53.47;33.45;;;;;;;;;;5011945;28;20040;-67
2021/12/28 02:58:12;;;;;;;57.83;33.60;;;;;;;;;;5023490;28;20121;-67
2021/12/28 03:00:49;;;;;;;63.00;31.98;;;;;;;;;;5031578;28;20041;-71
2021/12/28 03:03:18;;;;;;;60.72;33.47;;;;;;;;;;5032408;28;20445;-69
2021/12/28 03:05:46;;;;;;;66.90;33.60;;;;;;;;;;5031653;28;20025;-68
2021/12/28 03:08:14;;;;;;;55.65;30.20;;;;;;;;;;5031650;28;20503;-68
2021/12/28 03:10:41;;;;;;;50.80;29.50;;;;;;;;;;5031172;28;20026;-68
2021/12/28 03:13:09;;;;;;;42.75;25.00;;;;;;;;;;5028143;28;20047;-69
2021/12/28 03:15:34;;;;;;;48.38;27.25;;;;;;;;;;5022759;28;20021;-67
2021/12/28 03:18:00;;;;;;;42.65;25.80;;;;;;;;;;5031316;28;20400;-68
2021/12/28 03:20:26;;;;;;;53.20;28.55;;;;;;;;;;5031260;28;20248;-68
2021/12/28 03:22:52;;;;;;;44.13;26.20;;;;;;;;;;5031747;28;20429;-68
2021/12/28 03:25:18;;;;;;;43.72;25.60;;;;;;;;;;5031970;28;20033;-67
2021/12/28 03:27:44;;;;;;;37.00;23.80;;;;;;;;;;5031538;28;20384;-67
2021/12/28 03:30:13;;;;;;;38.58;23.77;;;;;;;;;;5031218;28;20045;-67
2021/12/28 03:32:39;;;;;;;44.65;25.10;;;;;;;;;;5028830;28;20042;-69
2021/12/28 03:35:08;;;;;;;42.78;24.00;;;;;;;;;;5031250;28;20062;-69
2021/12/28 03:37:34;;;;;;;46.55;28.25;;;;;;;;;;5031534;28;20034;-67
2021/12/28 03:40:01;;;;;;;51.17;30.17;;;;;;;;;;5031455;28;20033;-66
2021/12/28 03:42:27;;;;;;;45.20;27.70;;;;;;;;;;5031679;28;20041;-68
2021/12/28 03:44:53;;;;;;;48.88;29.42;;;;;;;;;;5033626;28;20025;-66
2021/12/28 03:47:19;;;;;;;50.17;27.70;;;;;;;;;;5035625;28;20404;-67
2021/12/28 03:49:45;;;;;;;41.13;25.70;;;;;;;;;;5035346;28;20030;-67
2021/12/28 03:52:10;;;;;;;45.78;28.52;;;;;;;;;;5035297;28;20041;-69
2021/12/28 03:54:36;;;;;;;56.72;29.63;;;;;;;;;;5034493;28;20021;-68
2021/12/28 03:57:04;;;;;;;43.33;27.77;;;;;;;;;;5035649;28;20041;-70
2021/12/28 03:59:30;;;;;;;50.22;29.98;;;;;;;;;;5035408;28;20128;-68
2021/12/28 04:01:57;;;;;;;42.00;27.42;;;;;;;;;;5035172;28;20475;-68
2021/12/28 04:04:23;;;;;;;45.15;27.35;;;;;;;;;;5035049;28;20028;-68
2021/12/28 04:06:49;;;;;;;48.03;28.90;;;;;;;;;;5025731;28;20157;-68
2021/12/28 04:09:22;;;;;;;47.53;28.15;;;;;;;;;;5025778;28;20072;-70
2021/12/28 04:11:48;;;;;;;;;;;;;;;;;;5023123;28;20042;-67
2021/12/28 04:14:14;;;;;;;35.53;21.90;;;;;;;;;;5014121;28;19913;-67
2021/12/28 04:16:40;;;;;;;35.97;19.73;;;;;;;;;;5015435;28;20104;-67
2021/12/28 04:19:06;;;;;;;29.38;18.08;;;;;;;;;;5014981;28;20040;-67
2021/12/28 04:21:33;;;;;;;26.52;15.77;;;;;;;;;;5014856;28;20042;-68
2021/12/28 04:23:59;;;;;;;33.10;16.63;;;;;;;;;;5017080;28;20042;-68
2021/12/28 04:26:27;;;;;;;22.95;15.30;;;;;;;;;;5035171;28;20087;-67
2021/12/28 04:28:53;;;;;;;24.35;15.88;;;;;;;;;;5034427;28;20041;-67
2021/12/28 04:31:19;;;;;;;22.40;14.35;;;;;;;;;;5034262;28;20037;-67
2021/12/28 04:33:45;;;;;;;18.95;11.07;;;;;;;;;;5034431;28;20040;-68
2021/12/28 04:36:14;;;;;;;19.13;10.88;;;;;;;;;;5034234;28;20476;-68
2021/12/28 04:38:42;;;;;;;18.35;10.63;;;;;;;;;;5016409;28;20056;-70
2021/12/28 04:41:09;;;;;;;21.90;10.85;;;;;;;;;;5033978;28;20041;-70
2021/12/28 04:43:35;;;;;;;17.55;11.50;;;;;;;;;;5033977;28;20052;-67
2021/12/28 04:46:01;;;;;;;19.35;11.43;;;;;;;;;;5034236;28;20025;-68
2021/12/28 04:48:27;;;;;;;15.82;11.25;;;;;;;;;;5034378;28;20029;-68
2021/12/28 04:50:53;;;;;;;15.02;10.05;;;;;;;;;;5031625;28;20572;-69
2021/12/28 04:53:19;;;;;;;16.13;10.50;;;;;;;;;;5026656;28;20030;-68
2021/12/28 04:55:48;;;;;;;15.73;9.05;;;;;;;;;;5015230;28;20038;-70
2021/12/28 04:58:15;;;;;;;12.73;7.70;;;;;;;;;;5013376;28;20080;-69
2021/12/28 05:00:42;;;;;;;16.88;9.50;;;;;;;;;;5031586;28;20034;-69
2021/12/28 05:03:09;;;;;;;15.65;9.02;;;;;;;;;;5026778;28;20033;-68
2021/12/28 05:05:35;;;;;;;15.43;9.27;;;;;;;;;;5014753;28;20045;-70
2021/12/28 05:08:04;;;;;;;16.50;8.63;;;;;;;;;;5014577;28;20026;-68
2021/12/28 05:10:31;;;;;;;13.75;7.75;;;;;;;;;;5014705;28;20030;-68
2021/12/28 05:12:56;;;;;;;13.45;8.13;;;;;;;;;;5013936;28;20060;-68
2021/12/28 05:15:22;;;;;;;11.82;7.75;;;;;;;;;;5014404;28;20042;-68
2021/12/28 05:17:48;;;;;;;14.07;8.77;;;;;;;;;;5014593;28;20017;-68
2021/12/28 05:20:14;;;;;;;16.77;8.82;;;;;;;;;;5014843;28;20563;-71
2021/12/28 05:22:40;;;;;;;15.90;8.95;;;;;;;;;;5023414;28;20060;-70
2021/12/28 05:25:07;;;;;;;14.90;8.80;;;;;;;;;;5033450;28;20049;-69
2021/12/28 05:27:33;;;;;;;14.32;8.32;;;;;;;;;;5031445;28;20034;-70
2021/12/28 05:29:58;;;;;;;13.55;7.93;;;;;;;;;;5048451;28;20427;-70
2021/12/28 05:32:24;;;;;;;15.23;9.00;;;;;;;;;;5032964;28;20396;-69
2021/12/28 05:34:50;;;;;;;18.35;9.63;;;;;;;;;;5025071;28;20045;-71
2021/12/28 05:37:16;;;;;;;15.00;10.13;;;;;;;;;;5033202;28;20029;-70
2021/12/28 05:39:42;;;;;;;14.68;9.13;;;;;;;;;;5033218;28;20029;-71
2021/12/28 05:42:09;;;;;;;14.57;9.15;;;;;;;;;;5031565;28;20036;-72
2021/12/28 05:44:35;;;;;;;14.52;9.32;;;;;;;;;;5032502;28;20037;-71
2021/12/28 05:47:00;;;;;;;16.65;8.68;;;;;;;;;;5032927;28;20049;-73
2021/12/28 05:49:26;;;;;;;14.27;8.82;;;;;;;;;;5033172;28;20298;-72
2021/12/28 05:51:52;;;;;;;14.45;8.55;;;;;;;;;;5031761;28;20025;-71
2021/12/28 05:54:19;;;;;;;14.40;8.77;;;;;;;;;;5033133;28;20087;-72
2021/12/28 05:56:45;;;;;;;13.88;8.98;;;;;;;;;;5032483;28;20087;-72
2021/12/28 05:59:11;;;;;;;15.68;9.75;;;;;;;;;;5032256;28;20033;-70
2021/12/28 06:01:38;;;;;;;12.75;8.63;;;;;;;;;;5029475;28;20021;-70
2021/12/28 06:04:04;;;;;;;16.15;8.90;;;;;;;;;;5022038;28;20171;-71
2021/12/28 06:06:31;;;;;;;17.70;10.38;;;;;;;;;;5013249;28;20049;-71
2021/12/28 06:08:57;;;;;;;15.65;9.05;;;;;;;;;;5013648;28;20388;-73
2021/12/28 06:11:23;;;;;;;17.38;10.30;;;;;;;;;;5013885;28;20163;-70
2021/12/28 06:13:49;;;;;;;21.92;12.30;;;;;;;;;;5013322;28;20125;-71
2021/12/28 06:16:15;;;;;;;30.58;14.45;;;;;;;;;;5011797;28;20026;-71
2021/12/28 06:18:41;;;;;;;27.17;16.75;;;;;;;;;;5012125;28;20180;-71
2021/12/28 06:21:07;;;;;;;28.17;16.85;;;;;;;;;;5013283;28;20030;-70
2021/12/28 06:23:34;;;;;;;26.58;15.35;;;;;;;;;;5013192;28;20029;-71
2021/12/28 06:25:59;;;;;;;23.45;14.65;;;;;;;;;;5013436;28;20034;-70
2021/12/28 06:28:25;;;;;;;27.40;15.57;;;;;;;;;;5012979;28;20072;-69
2021/12/28 06:30:53;;;;;;;26.17;15.20;;;;;;;;;;5013471;28;20038;-70
2021/12/28 06:33:20;;;;;;;20.85;13.15;;;;;;;;;;5012917;28;20113;-70
2021/12/28 06:35:46;;;;;;;23.88;14.07;;;;;;;;;;5012623;28;20439;-71
2021/12/28 06:38:13;;;;;;;22.95;14.48;;;;;;;;;;5034382;28;20387;-70
2021/12/28 06:40:38;;;;;;;22.38;14.15;;;;;;;;;;5032571;28;20033;-71
2021/12/28 06:43:05;;;;;;;23.33;13.98;;;;;;;;;;5032547;28;20083;-70
2021/12/28 06:45:30;;;;;;;30.38;17.23;;;;;;;;;;5032473;28;20060;-71
2021/12/28 06:47:56;;;;;;;27.17;16.30;;;;;;;;;;5031540;28;20077;-70
2021/12/28 06:50:22;;;;;;;27.60;14.82;;;;;;;;;;5031114;28;20105;-71
2021/12/28 06:52:48;;;;;;;20.55;13.25;;;;;;;;;;5018576;28;20030;-71
2021/12/28 06:55:14;;;;;;;20.30;12.13;;;;;;;;;;5012913;28;20022;-70
2021/12/28 06:57:39;;;;;;;21.65;13.07;;;;;;;;;;5051468;28;20452;-70
2021/12/28 07:00:09;;;;;;;19.15;13.63;;;;;;;;;;5051887;28;20443;-71
2021/12/28 07:02:35;;;;;;;19.75;12.93;;;;;;;;;;5052001;28;20029;-70
2021/12/28 07:05:01;;;;;;;22.45;13.23;;;;;;;;;;5052100;28;20025;-71
2021/12/28 07:07:27;;;;;;;23.00;14.05;;;;;;;;;;5052490;28;20044;-70
2021/12/28 07:09:53;;;;;;;26.15;15.15;;;;;;;;;;5052381;28;20413;-71
2021/12/28 07:12:19;;;;;;;22.88;14.00;;;;;;;;;;5051857;28;20035;-69
2021/12/28 07:14:44;;;;;;;22.48;13.45;;;;;;;;;;5051577;28;20490;-69
2021/12/28 07:17:10;;;;;;;20.70;14.20;;;;;;;;;;5052262;28;20091;-69
2021/12/28 07:19:36;;;;;;;22.75;15.98;;;;;;;;;;5052317;28;20099;-71
2021/12/28 07:22:02;;;;;;;25.65;16.13;;;;;;;;;;5052123;28;20530;-70
2021/12/28 07:24:28;;;;;;;26.58;15.70;;;;;;;;;;5052328;28;20025;-69
2021/12/28 07:26:54;;;;;;;26.15;16.83;;;;;;;;;;5051929;28;20037;-71
2021/12/28 07:29:19;;;;;;;24.50;16.35;;;;;;;;;;5051721;28;20091;-71
2021/12/28 07:31:46;;;;;;;23.58;16.92;;;;;;;;;;5052084;28;20037;-70
2021/12/28 07:34:12;;;;;;;31.45;18.75;;;;;;;;;;5052048;28;20025;-71
2021/12/28 07:36:37;;;;;;;25.13;16.98;;;;;;;;;;5051817;28;20560;-69
2021/12/28 07:39:05;;;;;;;25.27;16.08;;;;;;;;;;5043243;28;20037;-71
2021/12/28 07:41:31;;;;;;;23.83;16.83;;;;;;;;;;5031911;28;20484;-73
2021/12/28 07:44:01;;;;;;;23.75;16.25;;;;;;;;;;5014519;28;20033;-69
2021/12/28 07:46:27;;;;;;;25.20;16.58;;;;;;;;;;5032072;28;20061;-71
2021/12/28 07:48:52;;;;;;;29.55;19.00;;;;;;;;;;5032011;28;20091;-70
2021/12/28 07:51:18;;;;;;;33.65;20.10;;;;;;;;;;5030270;28;20388;-70
2021/12/28 07:53:44;;;;;;;29.67;18.77;;;;;;;;;;5029393;28;20033;-72
2021/12/28 07:56:10;;;;;;;30.80;19.27;;;;;;;;;;5026626;28;20040;-71
2021/12/28 07:58:36;;;;;;;36.22;20.45;;;;;;;;;;5031923;28;20026;-70
2021/12/28 08:01:03;;;;;;;30.95;19.70;;;;;;;;;;5032211;28;20037;-71
2021/12/28 08:03:29;;;;;;;31.48;20.33;;;;;;;;;;5032758;28;20040;-71
2021/12/28 08:05:54;;;;;;;34.92;22.42;;;;;;;;;;5030678;28;20116;-72
2021/12/28 08:08:20;;;;;;;34.22;21.30;;;;;;;;;;5031434;28;20058;-71
2021/12/28 08:10:46;;;;;;;30.23;20.50;;;;;;;;;;5031755;28;20452;-72
2021/12/28 08:13:12;;;;;;;35.05;21.52;;;;;;;;;;5031198;28;20126;-72
2021/12/28 08:15:39;;;;;;;38.40;21.63;;;;;;;;;;5030944;28;20033;-70
2021/12/28 08:18:07;;;;;;;35.50;21.35;;;;;;;;;;5030871;28;20391;-70
2021/12/28 08:20:34;;;;;;;31.10;21.10;;;;;;;;;;5030956;28;20429;-72
2021/12/28 08:23:00;;;;;;;31.08;20.35;;;;;;;;;;5031252;28;20025;-73
2021/12/28 08:25:26;;;;;;;32.42;21.58;;;;;;;;;;5031275;28;20041;-71
2021/12/28 08:27:52;;;;;;;44.95;23.92;;;;;;;;;;5031162;28;20037;-71
2021/12/28 08:30:19;;;;;;;42.60;24.25;;;;;;;;;;5032225;28;20041;-71
2021/12/28 08:32:46;;;;;;;37.45;22.20;;;;;;;;;;5034615;28;20077;-69
2021/12/28 08:35:14;;;;;;;31.80;21.25;;;;;;;;;;5034345;28;20503;-71
2021/12/28 08:37:40;;;;;;;34.20;23.55;;;;;;;;;;5034576;28;20539;-73
2021/12/28 08:40:09;;;;;;;32.80;20.38;;;;;;;;;;5034806;28;20036;-71
2021/12/28 08:42:35;;;;;;;29.08;18.90;;;;;;;;;;5034722;28;20021;-71
2021/12/28 08:45:01;;;;;;;32.60;18.90;;;;;;;;;;5034458;28;20372;-70
2021/12/28 08:47:27;;;;;;;29.58;19.05;;;;;;;;;;5034649;28;20100;-72
2021/12/28 08:49:55;;;;;;;29.05;16.95;;;;;;;;;;5033383;28;20507;-71
2021/12/28 08:52:21;;;;;;;23.85;15.13;;;;;;;;;;5033109;28;20491;-71
2021/12/28 08:54:47;;;;;;;20.92;14.63;;;;;;;;;;5034470;28;20152;-71
2021/12/28 08:57:13;;;;;;;30.42;17.88;;;;;;;;;;5034071;28;20452;-71
2021/12/28 08:59:39;;;;;;;36.55;19.08;;;;;;;;;;5043970;28;20106;-70
2021/12/28 09:02:07;;;;;;;34.55;19.02;;;;;;;;;;5034274;28;20026;-73
2021/12/28 09:04:33;;;;;;;28.50;17.58;;;;;;;;;;5033273;28;20025;-73
2021/12/28 09:06:59;;;;;;;34.15;19.85;;;;;;;;;;5019680;28;20033;-71
2021/12/28 09:09:25;;;;;;;22.58;16.20;;;;;;;;;;5014126;28;20034;-71
2021/12/28 09:11:51;;;;;;;34.20;21.20;;;;;;;;;;5014172;28;20443;-70
2021/12/28 09:14:16;;;;;;;31.23;21.35;;;;;;;;;;5014749;28;20036;-70
2021/12/28 09:16:42;;;;;;;34.60;22.52;;;;;;;;;;5026009;28;20377;-72
2021/12/28 09:19:08;;;;;;;31.80;21.08;;;;;;;;;;5033807;28;20373;-69
2021/12/28 09:21:34;;;;;;;35.10;20.77;;;;;;;;;;5033878;28;20032;-70
2021/12/28 09:24:00;;;;;;;32.67;20.65;;;;;;;;;;5034446;28;20497;-72
2021/12/28 09:26:25;;;;;;;32.75;21.67;;;;;;;;;;5025507;28;20032;-71
2021/12/28 09:28:52;;;;;;;29.80;17.40;;;;;;;;;;5013894;28;20042;-70
2021/12/28 09:31:17;;;;;;;27.88;17.80;;;;;;;;;;5013999;28;20088;-70
2021/12/28 09:33:43;;;;;;;30.58;18.88;;;;;;;;;;5013912;28;20037;-70
2021/12/28 09:36:14;;;;;;;30.50;18.90;;;;;;;;;;5014147;28;20381;-70
2021/12/28 09:38:42;;;;;;;27.83;16.55;;;;;;;;;;5014137;28;20029;-72
2021/12/28 09:41:08;;;;;;;22.20;14.70;;;;;;;;;;5013425;28;20345;-71
2021/12/28 09:43:34;;;;;;;21.00;14.15;;;;;;;;;;5013135;28;20026;-71
2021/12/28 09:46:00;;;;;;;25.85;16.85;;;;;;;;;;5013653;28;20057;-69
2021/12/28 09:48:26;;;;;;;29.55;18.17;;;;;;;;;;5013245;28;20391;-69
2021/12/28 09:50:52;;;;;;;23.65;16.08;;;;;;;;;;5013448;28;20030;-71
2021/12/28 09:53:17;;;;;;;23.65;14.45;;;;;;;;;;5013662;28;20042;-70
2021/12/28 09:55:43;;;;;;;23.17;14.65;;;;;;;;;;5013352;28;20026;-70
2021/12/28 09:58:10;;;;;;;21.30;14.77;;;;;;;;;;5013519;28;20034;-69
2021/12/28 10:00:36;;;;;;;23.65;14.77;;;;;;;;;;5013310;28;20033;-69
2021/12/28 10:03:02;;;;;;;22.73;15.30;;;;;;;;;;5013524;28;20054;-71
2021/12/28 10:05:29;;;;;;;21.23;13.20;;;;;;;;;;5013413;28;20567;-69
2021/12/28 10:07:57;;;;;;;17.77;12.52;;;;;;;;;;5013529;28;20191;-70
2021/12/28 10:10:34;;;;;;;17.20;11.27;;;;;;;;;;5013108;28;20026;-70
2021/12/28 10:13:10;;;;;;;19.77;12.77;;;;;;;;;;5012862;28;20531;-69
2021/12/28 10:15:40;;;;;;;15.63;10.93;;;;;;;;;;5013323;28;20499;-69
2021/12/28 10:18:10;;;;;;;13.98;10.10;;;;;;;;;;5012951;28;20492;-70
2021/12/28 10:20:46;;;;;;;17.60;10.77;;;;;;;;;;5024235;28;20034;-71
2021/12/28 10:23:15;;;;;;;13.65;10.73;;;;;;;;;;5032800;28;20442;-71
2021/12/28 10:25:47;;;;;;;17.02;11.57;;;;;;;;;;5032652;28;20029;-71
2021/12/28 10:28:28;;;;;;;18.02;11.98;;;;;;;;;;5033039;28;20400;-71
2021/12/28 10:31:01;;;;;;;24.40;13.43;;;;;;;;;;5032488;28;20443;-71
2021/12/28 10:33:29;;;;;;;18.98;13.30;;;;;;;;;;5032341;28;20107;-70
2021/12/28 10:35:58;;;;;;;18.80;13.00;;;;;;;;;;5031939;28;20449;-72
2021/12/28 10:38:29;;;;;;;17.73;10.48;;;;;;;;;;5030707;28;20495;-72
2021/12/28 10:40:58;;;;;;;17.77;10.90;;;;;;;;;;5032510;28;20041;-72
2021/12/28 10:43:29;;;;;;;18.63;9.60;;;;;;;;;;5032370;28;20029;-69
2021/12/28 10:46:00;;;;;;;12.05;8.73;;;;;;;;;;5032077;28;20072;-70
2021/12/28 10:48:39;;;;;;;17.65;11.70;;;;;;;;;;5031871;28;20076;-69
2021/12/28 10:51:06;;;;;;;15.88;11.15;;;;;;;;;;5031668;28;20052;-70
2021/12/28 10:53:44;;;;;;;17.20;11.45;;;;;;;;;;5031696;28;20029;-71
2021/12/28 10:56:11;;;;;;;14.65;9.40;;;;;;;;;;5032009;28;20033;-69
2021/12/28 10:58:41;;;;;;;18.67;10.57;;;;;;;;;;5032722;28;20036;-71
2021/12/28 11:01:12;;;;;;;18.42;10.95;;;;;;;;;;5031942;28;20044;-71
2021/12/28 11:03:40;;;;;;;14.45;9.43;;;;;;;;;;5032185;28;20063;-70
2021/12/28 11:06:11;;;;;;;13.65;9.40;;;;;;;;;;5030919;28;20101;-69
2021/12/28 11:08:37;;;;;;;17.20;10.48;;;;;;;;;;5032233;28;20062;-70
2021/12/28 11:11:14;;;;;;;13.95;9.68;;;;;;;;;;5030874;28;20018;-70
2021/12/28 11:13:40;;;;;;;18.00;11.60;;;;;;;;;;5032035;28;20447;-70
2021/12/28 11:16:11;;;;;;;17.42;9.80;;;;;;;;;;5031917;28;20029;-70
2021/12/28 11:18:40;;;;;;;16.88;9.35;;;;;;;;;;5031293;28;20383;-69
2021/12/28 11:21:19;;;;;;;13.73;9.68;;;;;;;;;;5031893;28;20032;-71
2021/12/28 11:23:49;;;;;;;14.30;9.00;;;;;;;;;;5030399;28;20048;-69
2021/12/28 11:26:33;;;;;;;15.07;8.95;;;;;;;;;;5031353;28;20711;-69
2021/12/28 11:29:30;;;;;;;14.75;9.70;;;;;;;;;;5031373;28;20460;-69
2021/12/28 11:32:01;;;;;;;15.77;10.13;;;;;;;;;;5031132;28;20132;-70
2021/12/28 11:34:34;;;;;;;21.17;12.70;;;;;;;;;;5032434;28;20534;-70
2021/12/28 11:37:15;;;;;;;23.20;14.18;;;;;;;;;;5032025;28;20550;-70
2021/12/28 11:39:45;;;;;;;24.63;13.82;;;;;;;;;;5031862;28;20045;-70
2021/12/28 11:42:13;;;;;;;18.63;13.10;;;;;;;;;;5032097;28;20037;-69
2021/12/28 11:44:40;;;;;;;19.60;12.55;;;;;;;;;;5031896;28;20025;-69
2021/12/28 11:47:08;;;;;;;21.25;13.23;;;;;;;;;;5031581;28;20037;-70
2021/12/28 11:49:35;;;;;;;21.98;14.30;;;;;;;;;;5031910;28;20045;-70
2021/12/28 11:52:04;;;;;;;21.10;13.77;;;;;;;;;;5031809;28;20113;-70
2021/12/28 11:54:33;;;;;;;21.63;14.20;;;;;;;;;;5032092;28;20136;-71
2021/12/28 11:57:26;;;;;;;20.58;14.35;;;;;;;;;;5032098;28;20095;-68
2021/12/28 11:59:57;;;;;;;17.42;12.95;;;;;;;;;;5031851;28;20056;-69
2021/12/28 12:02:47;;;;;;;18.58;13.05;;;;;;;;;;5031949;28;20050;-70
2021/12/28 12:05:17;;;;;;;19.50;12.65;;;;;;;;;;5032534;28;20040;-69
2021/12/28 12:07:43;;;;;;;18.80;11.98;;;;;;;;;;5035280;28;20128;-69
2021/12/28 12:10:17;;;;;;;20.08;11.60;;;;;;;;;;5035179;28;20418;-71
2021/12/28 12:12:43;;;;;;;18.33;11.27;;;;;;;;;;5035820;28;20417;-71
2021/12/28 12:15:11;;;;;;;19.98;11.35;;;;;;;;;;5034252;28;20034;-71
2021/12/28 12:17:38;;;;;;;21.58;11.50;;;;;;;;;;5035212;28;20384;-70
2021/12/28 12:20:06;;;;;;;23.65;12.30;;;;;;;;;;5020773;28;20124;-70
2021/12/28 12:22:32;;;;;;;21.75;11.77;;;;;;;;;;5026522;28;20373;-70
2021/12/28 12:25:19;;;;;;;29.30;13.63;;;;;;;;;;5035326;28;20026;-69
2021/12/28 12:27:51;;;;;;;18.33;11.32;;;;;;;;;;5018048;28;20041;-70
2021/12/28 12:30:17;;;;;;;17.92;9.55;;;;;;;;;;5029842;28;20303;-69
2021/12/28 12:35:45;;;;;;;16.80;9.52;;;;;;;;;;5034252;28;20034;-71
2021/12/28 12:38:14;;;;;;;17.52;8.90;;;;;;;;;;5034734;28;20188;-72
2021/12/28 12:41:25;;;;;;;18.52;9.63;;;;;;;;;;5025418;28;20099;-72
2021/12/28 12:43:57;;;;;;;20.80;11.82;;;;;;;;;;5014854;28;20044;-71
2021/12/28 12:46:37;;;;;;;15.88;8.75;;;;;;;;;;5034854;28;20429;-72
2021/12/28 12:49:23;;;;;;;19.40;10.73;;;;;;;;;;5034290;28;20025;-70
2021/12/28 12:51:52;;;;;;;32.83;12.13;;;;;;;;;;5033736;28;20142;-71
2021/12/28 12:54:22;;;;;;;14.68;10.20;;;;;;;;;;5034468;28;20033;-73
2021/12/28 12:56:51;;;;;;;15.70;10.57;;;;;;;;;;5034445;28;20124;-72
2021/12/28 12:59:16;;;;;;;18.40;11.27;;;;;;;;;;5034793;28;20026;-70
2021/12/28 13:01:42;;;;;;;17.35;11.40;;;;;;;;;;5034347;28;20036;-70
2021/12/28 13:04:26;;;;;;;19.40;13.25;;;;;;;;;;5034865;28;20105;-72
2021/12/28 13:07:06;;;;;;;20.98;15.18;;;;;;;;;;5034427;28;20419;-72
2021/12/28 13:09:35;;;;;;;25.77;17.02;;;;;;;;;;5033419;28;20440;-73
2021/12/28 13:12:02;;;;;;;24.85;16.20;;;;;;;;;;5020187;28;20018;-74
2021/12/28 13:14:32;;;;;;;28.50;18.20;;;;;;;;;;5014274;28;20037;-73
2021/12/28 13:16:58;;;;;;;33.30;19.40;;;;;;;;;;5014131;28;20040;-73
2021/12/28 13:19:24;;;;;;;27.77;19.17;;;;;;;;;;5014351;28;20101;-72
2021/12/28 13:21:58;;;;;;;28.98;18.20;;;;;;;;;;5022071;28;20022;-70
2021/12/28 13:24:26;;;;;;;32.03;18.80;;;;;;;;;;5034536;28;20452;-73
2021/12/28 13:27:00;;;;;;;29.60;20.20;;;;;;;;;;5033768;28;20494;-72
2021/12/28 13:29:49;;;;;;;26.60;19.55;;;;;;;;;;5033903;28;20037;-72
2021/12/28 13:32:41;;;;;;;27.75;16.33;;;;;;;;;;5034063;28;20116;-71
2021/12/28 13:35:15;;;;;;;24.10;15.65;;;;;;;;;;5033550;28;20037;-73
2021/12/28 13:37:43;;;;;;;22.00;15.82;;;;;;;;;;5033833;28;20033;-72
2021/12/28 13:40:30;;;;;;;24.02;13.43;;;;;;;;;;5033042;28;20495;-72
2021/12/28 13:42:59;;;;;;;24.77;16.10;;;;;;;;;;5033972;28;20057;-73
2021/12/28 13:45:45;;;;;;;27.08;18.38;;;;;;;;;;5033750;28;20039;-76
2021/12/28 13:48:18;;;;;;;26.73;17.85;;;;;;;;;;5033898;28;20559;-73
2021/12/28 13:50:46;;;;;;;;;;;;;;;;;;5033908;28;20037;-75
2021/12/28 13:53:15;;;;;;;31.73;20.48;;;;;;;;;;5031271;28;19936;-76
2021/12/28 13:55:44;;;;;;;34.90;21.98;;;;;;;;;;5018439;28;20045;-77
2021/12/28 13:58:23;;;;;;;35.88;20.73;;;;;;;;;;5016230;28;20076;-75
2021/12/28 14:00:52;;;;;;;41.13;25.35;;;;;;;;;;5021366;28;20508;-74
2021/12/28 14:03:19;;;;;;;42.40;26.17;;;;;;;;;;5029736;28;20113;-75
2021/12/28 14:05:47;;;;;;;36.70;22.73;;;;;;;;;;5019722;28;20033;-74
2021/12/28 14:08:18;;;;;;;38.40;23.20;;;;;;;;;;5013574;28;20109;-76
2021/12/28 14:10:44;;;;;;;39.20;23.45;;;;;;;;;;5023270;28;20045;-76
2021/12/28 14:13:12;;;;;;;36.88;24.08;;;;;;;;;;5018050;28;20117;-74
2021/12/28 14:15:56;;;;;;;35.22;21.90;;;;;;;;;;5013326;28;20127;-74
2021/12/28 14:18:29;;;;;;;31.90;20.23;;;;;;;;;;5013147;28;20029;-75
2021/12/28 14:20:56;;;;;;;31.70;18.92;;;;;;;;;;5013413;28;20041;-75
2021/12/28 14:23:28;;;;;;;29.23;18.80;;;;;;;;;;5013616;28;20034;-75
2021/12/28 14:26:14;;;;;;;29.17;18.00;;;;;;;;;;5013085;28;20175;-75
2021/12/28 14:28:41;;;;;;;29.92;19.23;;;;;;;;;;5011203;28;20064;-71
2021/12/28 14:31:13;;;;;;;29.45;18.92;;;;;;;;;;5011889;28;20033;-74